Time;durP1;ratioP1;P1;durP2;ratioP2;P2;SDS_P1;SDS_P2;PMS_P1;PMS_P2;Temp;Humidity;BMP_temperature;BMP_pressure;BME280_temperature;BME280_humidity;BME280_pressure;Samples;Min_cycle;Max_cycle;Signal;HPM_P1;HPM_P2
2023/07/16 00:01:19;;;;;;;1.73;1.20;;;;;;;;;;5041620;28;20232;-65
2023/07/16 00:03:47;;;;;;;4.67;1.40;;;;;;;;;;5039267;28;20666;-64
2023/07/16 00:06:15;;;;;;;2.70;1.50;;;;;;;;;;5039596;28;20260;-64
2023/07/16 00:08:43;;;;;;;2.20;1.40;;;;;;;;;;5039704;28;20208;-65
2023/07/16 00:11:10;;;;;;;2.90;1.27;;;;;;;;;;5039172;28;20228;-65
2023/07/16 00:13:38;;;;;;;1.63;1.50;;;;;;;;;;5039651;28;20300;-65
2023/07/16 00:16:07;;;;;;;1.70;1.30;;;;;;;;;;5039510;28;20220;-65
2023/07/16 00:18:35;;;;;;;2.20;1.33;;;;;;;;;;5039557;28;20212;-65
2023/07/16 00:21:03;;;;;;;1.43;1.30;;;;;;;;;;5038984;28;20764;-65
2023/07/16 00:23:31;;;;;;;3.53;1.43;;;;;;;;;;5039470;28;20215;-65
2023/07/16 00:25:58;;;;;;;1.67;1.17;;;;;;;;;;5039073;28;20280;-62
2023/07/16 00:28:26;;;;;;;1.97;1.40;;;;;;;;;;5039416;28;20208;-64
2023/07/16 00:30:54;;;;;;;2.43;1.47;;;;;;;;;;5039162;28;20295;-64
2023/07/16 00:33:23;;;;;;;1.97;1.57;;;;;;;;;;5039003;28;20243;-64
2023/07/16 00:35:51;;;;;;;2.80;1.33;;;;;;;;;;5039119;28;20729;-64
2023/07/16 00:38:19;;;;;;;2.37;1.00;;;;;;;;;;5039167;28;20218;-64
2023/07/16 00:40:47;;;;;;;1.53;1.07;;;;;;;;;;5046761;28;20286;-64
2023/07/16 00:43:15;;;;;;;4.80;1.20;;;;;;;;;;5038865;28;20207;-64
2023/07/16 00:45:45;;;;;;;2.87;1.27;;;;;;;;;;5038906;28;20210;-64
2023/07/16 00:48:13;;;;;;;3.57;1.17;;;;;;;;;;5039019;28;20665;-64
2023/07/16 00:50:43;;;;;;;1.53;1.33;;;;;;;;;;5038789;28;20242;-64
2023/07/16 00:53:11;;;;;;;1.40;1.30;;;;;;;;;;5038826;28;20216;-64
2023/07/16 00:55:39;;;;;;;1.77;1.40;;;;;;;;;;5038320;28;20223;-64
2023/07/16 00:58:09;;;;;;;2.40;1.40;;;;;;;;;;5038761;28;20222;-64
2023/07/16 01:00:38;;;;;;;2.37;1.60;;;;;;;;;;5048751;28;20645;-64
2023/07/16 01:03:07;;;;;;;2.27;1.20;;;;;;;;;;5038720;28;20235;-64
2023/07/16 01:05:37;;;;;;;2.77;1.70;;;;;;;;;;5038323;28;20691;-64
2023/07/16 01:08:09;;;;;;;1.50;1.40;;;;;;;;;;5038449;28;20673;-64
2023/07/16 01:10:38;;;;;;;1.30;1.17;;;;;;;;;;5038289;28;20226;-64
2023/07/16 01:13:06;;;;;;;1.10;1.00;;;;;;;;;;5038433;28;20282;-64
2023/07/16 01:15:34;;;;;;;1.37;1.20;;;;;;;;;;5037525;28;20235;-64
2023/07/16 01:18:01;;;;;;;2.50;1.63;;;;;;;;;;5051805;28;20292;-64
2023/07/16 01:20:29;;;;;;;1.00;1.00;;;;;;;;;;5039531;28;20230;-63
2023/07/16 01:23:07;;;;;;;1.63;1.40;;;;;;;;;;5045454;28;20208;-64
2023/07/16 01:25:49;;;;;;;1.27;1.17;;;;;;;;;;5037816;28;20243;-64
2023/07/16 01:28:34;;;;;;;1.73;1.50;;;;;;;;;;5038416;28;20211;-63
2023/07/16 01:31:04;;;;;;;2.40;1.30;;;;;;;;;;5037868;28;20263;-63
2023/07/16 01:33:33;;;;;;;1.30;1.20;;;;;;;;;;5037749;28;20756;-63
2023/07/16 01:36:01;;;;;;;2.70;1.53;;;;;;;;;;5037945;28;20290;-63
2023/07/16 01:38:29;;;;;;;1.63;1.13;;;;;;;;;;5038084;28;20213;-63
2023/07/16 01:40:56;;;;;;;1.67;1.30;;;;;;;;;;5038666;28;20238;-63
2023/07/16 01:43:24;;;;;;;1.67;1.40;;;;;;;;;;5037773;28;20606;-63
2023/07/16 01:45:52;;;;;;;2.67;1.47;;;;;;;;;;5038015;28;20212;-63
2023/07/16 01:48:29;;;;;;;4.10;1.20;;;;;;;;;;5037916;28;20215;-63
2023/07/16 01:50:56;;;;;;;1.83;1.10;;;;;;;;;;5037854;28;20698;-63
2023/07/16 01:53:24;;;;;;;1.43;1.20;;;;;;;;;;5037867;28;20235;-63
2023/07/16 01:55:52;;;;;;;2.67;1.60;;;;;;;;;;5037669;28;20210;-63
2023/07/16 01:58:20;;;;;;;3.07;1.20;;;;;;;;;;5037749;28;20655;-63
2023/07/16 02:00:48;;;;;;;1.50;1.10;;;;;;;;;;5041516;28;20238;-63
2023/07/16 02:03:16;;;;;;;4.10;1.27;;;;;;;;;;5037871;28;20223;-63
2023/07/16 02:05:45;;;;;;;3.90;1.40;;;;;;;;;;5037868;28;20207;-63
2023/07/16 02:08:13;;;;;;;2.60;1.30;;;;;;;;;;5037435;28;20639;-63
2023/07/16 02:10:40;;;;;;;3.77;1.43;;;;;;;;;;5037130;28;20228;-63
2023/07/16 02:13:08;;;;;;;1.63;1.10;;;;;;;;;;5037813;28;20213;-63
2023/07/16 02:15:36;;;;;;;3.07;1.30;;;;;;;;;;5037621;28;20215;-63
2023/07/16 02:18:04;;;;;;;2.70;1.40;;;;;;;;;;5051077;28;20213;-63
2023/07/16 02:20:32;;;;;;;4.10;1.60;;;;;;;;;;5037223;28;20660;-63
2023/07/16 02:23:01;;;;;;;1.60;0.97;;;;;;;;;;5037536;28;20211;-63
2023/07/16 02:25:29;;;;;;;1.70;1.50;;;;;;;;;;5038479;28;20274;-64
2023/07/16 02:27:57;;;;;;;2.00;1.13;;;;;;;;;;5041287;28;20301;-64
2023/07/16 02:30:25;;;;;;;2.23;1.63;;;;;;;;;;5041210;28;20334;-64
2023/07/16 02:32:52;;;;;;;2.53;1.47;;;;;;;;;;5041011;28;20239;-63
2023/07/16 02:35:20;;;;;;;2.20;1.33;;;;;;;;;;5041213;28;20208;-64
2023/07/16 02:37:48;;;;;;;4.50;1.20;;;;;;;;;;5041221;28;20306;-63
2023/07/16 02:40:19;;;;;;;1.40;1.30;;;;;;;;;;5047285;28;20234;-64
2023/07/16 02:42:46;;;;;;;3.00;1.30;;;;;;;;;;5042131;28;20637;-64
2023/07/16 02:45:14;;;;;;;5.17;1.33;;;;;;;;;;5041052;28;20214;-64
2023/07/16 02:47:42;;;;;;;1.60;1.00;;;;;;;;;;5041233;28;20257;-64
2023/07/16 02:50:10;;;;;;;4.30;1.37;;;;;;;;;;5041135;28;20625;-64
2023/07/16 02:52:38;;;;;;;1.47;1.37;;;;;;;;;;5040979;28;20670;-64
2023/07/16 02:55:06;;;;;;;1.77;1.10;;;;;;;;;;5040612;28;20640;-64
2023/07/16 02:57:35;;;;;;;4.33;1.40;;;;;;;;;;5047724;28;20271;-64
2023/07/16 03:00:03;;;;;;;2.23;1.40;;;;;;;;;;5060203;28;20330;-64
2023/07/16 03:02:31;;;;;;;2.17;1.30;;;;;;;;;;5040843;28;20281;-64
2023/07/16 03:04:59;;;;;;;2.20;0.90;;;;;;;;;;5040841;28;20655;-64
2023/07/16 03:07:26;;;;;;;1.70;1.60;;;;;;;;;;5040804;28;20678;-64
2023/07/16 03:09:57;;;;;;;2.00;1.00;;;;;;;;;;5040447;28;20596;-64
2023/07/16 03:12:24;;;;;;;3.97;1.63;;;;;;;;;;5040787;28;20206;-64
2023/07/16 03:14:54;;;;;;;5.03;1.33;;;;;;;;;;5040387;28;20239;-64
2023/07/16 03:17:22;;;;;;;1.90;1.13;;;;;;;;;;5050599;28;20817;-64
2023/07/16 03:19:50;;;;;;;2.40;1.10;;;;;;;;;;5043642;28;20231;-64
2023/07/16 03:22:17;;;;;;;1.47;1.37;;;;;;;;;;5044450;28;20315;-64
2023/07/16 03:24:45;;;;;;;1.37;1.23;;;;;;;;;;5041151;28;20298;-63
2023/07/16 03:27:13;;;;;;;3.10;1.20;;;;;;;;;;5040316;28;20211;-63
2023/07/16 03:29:46;;;;;;;1.57;1.37;;;;;;;;;;5040526;28;20260;-63
2023/07/16 03:32:15;;;;;;;2.67;1.30;;;;;;;;;;5040314;28;20223;-63
2023/07/16 03:34:42;;;;;;;3.53;1.50;;;;;;;;;;5040413;28;20220;-63
2023/07/16 03:37:10;;;;;;;2.93;1.30;;;;;;;;;;5039282;28;20667;-63
2023/07/16 03:39:38;;;;;;;2.83;1.10;;;;;;;;;;5041006;28;20217;-63
2023/07/16 03:42:06;;;;;;;2.43;1.10;;;;;;;;;;5049584;28;20227;-63
2023/07/16 03:44:33;;;;;;;1.63;1.30;;;;;;;;;;5040214;28;20212;-63
2023/07/16 03:47:01;;;;;;;3.47;1.30;;;;;;;;;;5040191;28;20207;-63
2023/07/16 03:49:30;;;;;;;3.03;1.50;;;;;;;;;;5039943;28;20265;-63
2023/07/16 03:51:58;;;;;;;3.93;2.90;;;;;;;;;;5039972;28;20267;-63
2023/07/16 03:54:26;;;;;;;2.80;1.47;;;;;;;;;;5039986;28;20214;-64
2023/07/16 03:56:53;;;;;;;2.50;1.50;;;;;;;;;;5039847;28;20215;-63
2023/07/16 03:59:22;;;;;;;4.30;1.30;;;;;;;;;;5040331;28;20210;-63
2023/07/16 04:01:50;;;;;;;4.87;1.67;;;;;;;;;;5039639;28;20640;-63
2023/07/16 04:04:17;;;;;;;1.30;1.20;;;;;;;;;;5039757;28;20261;-63
2023/07/16 04:06:47;;;;;;;2.80;1.30;;;;;;;;;;5039729;28;20303;-63
2023/07/16 04:09:14;;;;;;;3.17;1.33;;;;;;;;;;5061668;28;20201;-63
2023/07/16 04:11:42;;;;;;;1.57;0.80;;;;;;;;;;5057829;28;20219;-63
2023/07/16 04:14:10;;;;;;;2.63;1.17;;;;;;;;;;5049525;28;20297;-63
2023/07/16 04:16:37;;;;;;;3.13;1.37;;;;;;;;;;5050202;28;20282;-63
2023/07/16 04:19:07;;;;;;;2.00;1.33;;;;;;;;;;5064644;28;20208;-63
2023/07/16 04:21:35;;;;;;;3.87;1.50;;;;;;;;;;5062750;28;20705;-62
2023/07/16 04:24:04;;;;;;;1.57;1.30;;;;;;;;;;5067915;28;20226;-61
2023/07/16 04:26:32;;;;;;;2.17;1.30;;;;;;;;;;5062497;28;20206;-61
2023/07/16 04:29:00;;;;;;;2.00;1.20;;;;;;;;;;5047249;28;20207;-61
2023/07/16 04:31:27;;;;;;;1.67;1.20;;;;;;;;;;5053771;28;20229;-61
2023/07/16 04:33:55;;;;;;;2.77;1.17;;;;;;;;;;5048990;28;20733;-61
2023/07/16 04:36:23;;;;;;;2.17;1.20;;;;;;;;;;5057746;28;20285;-61
2023/07/16 04:38:51;;;;;;;4.60;1.60;;;;;;;;;;5068378;28;20207;-61
2023/07/16 04:41:22;;;;;;;4.77;1.23;;;;;;;;;;5066346;28;20233;-61
2023/07/16 04:43:50;;;;;;;1.40;1.07;;;;;;;;;;5066654;28;20210;-61
2023/07/16 04:46:17;;;;;;;3.27;1.20;;;;;;;;;;5065615;28;20199;-61
2023/07/16 04:48:46;;;;;;;3.50;1.30;;;;;;;;;;5066371;28;20268;-61
2023/07/16 04:51:13;;;;;;;1.20;1.03;;;;;;;;;;5066940;28;20234;-61
2023/07/16 04:53:41;;;;;;;3.40;1.00;;;;;;;;;;5063132;28;20618;-61
2023/07/16 04:56:12;;;;;;;4.00;1.63;;;;;;;;;;5065004;28;20675;-61
2023/07/16 04:58:44;;;;;;;1.43;1.17;;;;;;;;;;5068577;28;20627;-61
2023/07/16 05:01:12;;;;;;;2.03;1.20;;;;;;;;;;5064986;28;20229;-61
2023/07/16 05:03:40;;;;;;;0.83;0.83;;;;;;;;;;5064887;28;20266;-61
2023/07/16 05:06:08;;;;;;;2.40;1.53;;;;;;;;;;5066583;28;20228;-61
2023/07/16 05:08:36;;;;;;;1.50;1.13;;;;;;;;;;5063390;28;20199;-61
2023/07/16 05:11:04;;;;;;;3.17;1.37;;;;;;;;;;5061174;28;20234;-61
2023/07/16 05:13:32;;;;;;;1.80;1.33;;;;;;;;;;5040149;28;20218;-61
2023/07/16 05:16:01;;;;;;;2.70;1.40;;;;;;;;;;5038509;28;20235;-61
2023/07/16 05:18:29;;;;;;;2.60;1.53;;;;;;;;;;5051663;28;20204;-61
2023/07/16 05:20:57;;;;;;;1.87;1.23;;;;;;;;;;5054992;28;20230;-61
2023/07/16 05:23:24;;;;;;;4.07;1.20;;;;;;;;;;5058600;28;20226;-63
2023/07/16 05:25:52;;;;;;;2.83;1.10;;;;;;;;;;5059541;28;20604;-61
2023/07/16 05:28:20;;;;;;;1.20;0.90;;;;;;;;;;5066931;28;20210;-63
2023/07/16 05:30:49;;;;;;;2.77;1.23;;;;;;;;;;5064764;28;20221;-61
2023/07/16 05:33:18;;;;;;;2.37;0.90;;;;;;;;;;5060783;28;20239;-61
2023/07/16 05:35:49;;;;;;;1.60;1.10;;;;;;;;;;5064124;28;20203;-61
2023/07/16 05:38:17;;;;;;;4.50;1.50;;;;;;;;;;5065708;28;20559;-61
2023/07/16 05:40:45;;;;;;;1.77;1.27;;;;;;;;;;5066530;28;20238;-61
2023/07/16 05:43:14;;;;;;;1.30;1.00;;;;;;;;;;5063129;28;20287;-61
2023/07/16 05:45:42;;;;;;;2.23;1.20;;;;;;;;;;5067248;28;20198;-61
2023/07/16 05:48:10;;;;;;;2.77;1.20;;;;;;;;;;5066522;28;20294;-63
2023/07/16 05:50:40;;;;;;;3.27;1.40;;;;;;;;;;5062632;28;20218;-63
2023/07/16 05:53:07;;;;;;;5.23;1.57;;;;;;;;;;5063891;28;20205;-61
2023/07/16 05:55:35;;;;;;;4.37;1.47;;;;;;;;;;5063514;28;20206;-61
2023/07/16 05:58:03;;;;;;;4.07;1.10;;;;;;;;;;5067731;28;20232;-63
2023/07/16 06:00:31;;;;;;;3.97;1.20;;;;;;;;;;5064623;28;20244;-63
2023/07/16 06:03:01;;;;;;;2.90;1.40;;;;;;;;;;5065788;28;20219;-63
2023/07/16 06:05:32;;;;;;;4.07;1.40;;;;;;;;;;5058195;28;20667;-62
2023/07/16 06:08:01;;;;;;;1.73;1.20;;;;;;;;;;5066252;28;20248;-62
2023/07/16 06:10:29;;;;;;;2.30;1.07;;;;;;;;;;5065001;28;20214;-62
2023/07/16 06:12:57;;;;;;;2.43;1.30;;;;;;;;;;5066246;28;20194;-63
2023/07/16 06:15:25;;;;;;;3.60;1.50;;;;;;;;;;5064742;28;20273;-63
2023/07/16 06:17:53;;;;;;;2.27;1.13;;;;;;;;;;5065250;28;20567;-62
2023/07/16 06:20:21;;;;;;;2.23;1.00;;;;;;;;;;5063290;28;20224;-62
2023/07/16 06:22:49;;;;;;;3.23;1.37;;;;;;;;;;5062348;28;20247;-63
2023/07/16 06:25:18;;;;;;;1.57;1.30;;;;;;;;;;5050892;28;20209;-63
2023/07/16 06:27:46;;;;;;;3.27;1.50;;;;;;;;;;5062798;28;20206;-62
2023/07/16 06:30:13;;;;;;;1.90;1.40;;;;;;;;;;5059147;28;20235;-63
2023/07/16 06:32:41;;;;;;;3.50;1.50;;;;;;;;;;5050693;28;20233;-63
2023/07/16 06:35:10;;;;;;;2.63;1.30;;;;;;;;;;5042287;28;20246;-63
2023/07/16 06:37:38;;;;;;;4.10;1.20;;;;;;;;;;5041335;28;20200;-63
2023/07/16 06:40:07;;;;;;;2.53;1.30;;;;;;;;;;5039512;28;20250;-63
2023/07/16 06:42:36;;;;;;;3.23;1.30;;;;;;;;;;5037370;28;20213;-63
2023/07/16 06:45:04;;;;;;;4.33;1.63;;;;;;;;;;5037771;28;20213;-63
2023/07/16 06:47:32;;;;;;;4.40;1.67;;;;;;;;;;5037697;28;20247;-63
2023/07/16 06:50:00;;;;;;;5.23;1.37;;;;;;;;;;5047625;28;20233;-63
2023/07/16 06:52:28;;;;;;;3.37;1.40;;;;;;;;;;5037385;28;20282;-63
2023/07/16 06:54:56;;;;;;;3.23;1.50;;;;;;;;;;5037353;28;20248;-63
2023/07/16 06:57:24;;;;;;;1.40;0.93;;;;;;;;;;5037675;28;20301;-63
2023/07/16 06:59:54;;;;;;;3.47;1.37;;;;;;;;;;5041952;28;20311;-63
2023/07/16 07:02:22;;;;;;;2.47;1.37;;;;;;;;;;5037819;28;20216;-63
2023/07/16 07:04:51;;;;;;;4.23;1.50;;;;;;;;;;5037108;28;20227;-63
2023/07/16 07:07:23;;;;;;;2.13;1.50;;;;;;;;;;5037216;28;20294;-63
2023/07/16 07:09:51;;;;;;;3.40;1.50;;;;;;;;;;5044179;28;20238;-63
2023/07/16 07:12:19;;;;;;;3.53;1.70;;;;;;;;;;5057688;28;20219;-63
2023/07/16 07:14:47;;;;;;;2.53;1.10;;;;;;;;;;5060429;28;20219;-63
2023/07/16 07:17:16;;;;;;;2.67;1.27;;;;;;;;;;5060196;28;20205;-63
2023/07/16 07:19:44;;;;;;;1.23;1.13;;;;;;;;;;5044172;28;20217;-62
2023/07/16 07:22:12;;;;;;;2.63;1.10;;;;;;;;;;5040319;28;20301;-63
2023/07/16 07:24:40;;;;;;;1.83;1.20;;;;;;;;;;5040346;28;20693;-62
2023/07/16 07:27:07;;;;;;;1.97;1.33;;;;;;;;;;5050044;28;20219;-62
2023/07/16 07:29:35;;;;;;;2.40;1.13;;;;;;;;;;5040167;28;20205;-62
2023/07/16 07:32:03;;;;;;;1.97;1.37;;;;;;;;;;5046148;28;20205;-62
2023/07/16 07:34:33;;;;;;;3.97;1.40;;;;;;;;;;5039896;28;20237;-63
2023/07/16 07:37:00;;;;;;;2.07;1.20;;;;;;;;;;5043615;28;20210;-62
2023/07/16 07:39:29;;;;;;;1.53;1.00;;;;;;;;;;5049703;28;20211;-62
2023/07/16 07:41:57;;;;;;;4.50;2.00;;;;;;;;;;5039603;28;20317;-62
2023/07/16 07:44:25;;;;;;;1.97;1.17;;;;;;;;;;5042746;28;20261;-62
2023/07/16 07:46:53;;;;;;;2.77;1.27;;;;;;;;;;5059202;28;20291;-62
2023/07/16 07:49:20;;;;;;;2.27;1.77;;;;;;;;;;5059595;28;20605;-62
2023/07/16 07:51:50;;;;;;;4.83;1.60;;;;;;;;;;5059693;28;20318;-62
2023/07/16 07:54:17;;;;;;;1.83;1.10;;;;;;;;;;5054866;28;20210;-62
2023/07/16 07:56:46;;;;;;;2.83;1.33;;;;;;;;;;5039530;28;20615;-64
2023/07/16 07:59:13;;;;;;;2.40;1.30;;;;;;;;;;5044312;28;20205;-64
2023/07/16 08:01:41;;;;;;;2.80;1.47;;;;;;;;;;5047360;28;20231;-65
2023/07/16 08:04:09;;;;;;;2.23;0.90;;;;;;;;;;5039592;28;20318;-64
2023/07/16 08:06:37;;;;;;;3.43;1.37;;;;;;;;;;5039445;28;20615;-62
2023/07/16 08:09:06;;;;;;;2.67;1.00;;;;;;;;;;5039761;28;20597;-63
2023/07/16 08:11:34;;;;;;;1.33;0.93;;;;;;;;;;5039369;28;20698;-64
2023/07/16 08:14:01;;;;;;;2.80;1.13;;;;;;;;;;5039812;28;20208;-61
2023/07/16 08:16:29;;;;;;;4.03;1.40;;;;;;;;;;5043128;28;20212;-61
2023/07/16 08:18:57;;;;;;;5.13;1.47;;;;;;;;;;5055405;28;20431;-60
2023/07/16 08:21:25;;;;;;;3.33;1.50;;;;;;;;;;5039135;28;20232;-62
2023/07/16 08:23:53;;;;;;;3.07;1.10;;;;;;;;;;5041896;28;20614;-62
2023/07/16 08:26:22;;;;;;;1.67;1.33;;;;;;;;;;5056852;28;20578;-62
2023/07/16 08:28:49;;;;;;;4.10;1.73;;;;;;;;;;5043864;28;20239;-61
2023/07/16 08:31:17;;;;;;;2.47;1.80;;;;;;;;;;5038811;28;20232;-61
2023/07/16 08:33:45;;;;;;;3.67;2.03;;;;;;;;;;5046328;28;20272;-61
2023/07/16 08:36:13;;;;;;;5.17;1.87;;;;;;;;;;5044674;28;20305;-61
2023/07/16 08:38:41;;;;;;;4.03;2.10;;;;;;;;;;5042213;28;20210;-61
2023/07/16 08:41:09;;;;;;;3.73;1.63;;;;;;;;;;5050674;28;20222;-62
2023/07/16 08:43:39;;;;;;;3.20;1.20;;;;;;;;;;5038542;28;20203;-62
2023/07/16 08:46:07;;;;;;;2.20;1.20;;;;;;;;;;5039950;28;20207;-62
2023/07/16 08:48:35;;;;;;;3.17;1.30;;;;;;;;;;5058662;28;20205;-62
2023/07/16 08:51:03;;;;;;;2.10;1.50;;;;;;;;;;5055795;28;20312;-62
2023/07/16 08:53:31;;;;;;;2.73;1.60;;;;;;;;;;5038677;28;20220;-62
2023/07/16 08:55:59;;;;;;;2.87;1.63;;;;;;;;;;5038376;28;20225;-64
2023/07/16 08:58:26;;;;;;;2.10;1.60;;;;;;;;;;5038666;28;20213;-63
2023/07/16 09:00:57;;;;;;;4.73;1.70;;;;;;;;;;5039752;28;20315;-61
2023/07/16 09:03:25;;;;;;;4.07;1.40;;;;;;;;;;5042071;28;20212;-63
2023/07/16 09:05:54;;;;;;;2.93;1.50;;;;;;;;;;5057794;28;20318;-63
2023/07/16 09:08:28;;;;;;;3.40;1.73;;;;;;;;;;5058405;28;20207;-63
2023/07/16 09:10:56;;;;;;;2.83;1.30;;;;;;;;;;5057681;28;20720;-61
2023/07/16 09:13:26;;;;;;;5.00;1.70;;;;;;;;;;5058173;28;20207;-61
2023/07/16 09:15:56;;;;;;;2.37;1.40;;;;;;;;;;5058133;28;20230;-62
2023/07/16 09:18:25;;;;;;;2.53;1.73;;;;;;;;;;5056995;28;20256;-62
2023/07/16 09:20:55;;;;;;;2.67;1.57;;;;;;;;;;5046116;28;20272;-61
2023/07/16 09:23:24;;;;;;;1.83;1.30;;;;;;;;;;5038705;28;20256;-60
2023/07/16 09:25:52;;;;;;;5.27;2.03;;;;;;;;;;5038041;28;20231;-61
2023/07/16 09:28:20;;;;;;;4.03;1.70;;;;;;;;;;5038214;28;20245;-62
2023/07/16 09:30:48;;;;;;;4.83;1.73;;;;;;;;;;5038189;28;20228;-62
2023/07/16 09:33:17;;;;;;;3.23;1.57;;;;;;;;;;5037889;28;20290;-61
2023/07/16 09:35:45;;;;;;;4.60;1.77;;;;;;;;;;5037534;28;20672;-61
2023/07/16 09:38:13;;;;;;;2.80;1.43;;;;;;;;;;5038146;28;20240;-61
2023/07/16 09:40:42;;;;;;;5.00;1.77;;;;;;;;;;5045086;28;20275;-59
2023/07/16 09:43:11;;;;;;;2.93;1.30;;;;;;;;;;5037862;28;20222;-62
2023/07/16 09:45:39;;;;;;;3.63;1.40;;;;;;;;;;5037871;28;20227;-60
2023/07/16 09:48:07;;;;;;;4.27;1.83;;;;;;;;;;5037771;28;20600;-61
2023/07/16 09:50:37;;;;;;;2.67;1.63;;;;;;;;;;5041882;28;20296;-62
2023/07/16 09:53:07;;;;;;;4.60;1.87;;;;;;;;;;5037892;28;20207;-61
2023/07/16 09:55:36;;;;;;;3.57;1.57;;;;;;;;;;5037633;28;20205;-61
2023/07/16 09:58:10;;;;;;;6.50;1.60;;;;;;;;;;5037589;28;20578;-61
2023/07/16 10:00:38;;;;;;;4.33;1.77;;;;;;;;;;5048129;28;20229;-60
2023/07/16 10:03:06;;;;;;;3.17;1.40;;;;;;;;;;5037652;28;20210;-60
2023/07/16 10:05:38;;;;;;;4.87;1.63;;;;;;;;;;5044093;28;20601;-60
2023/07/16 10:08:15;;;;;;;4.30;1.47;;;;;;;;;;5057260;28;20286;-60
2023/07/16 10:10:44;;;;;;;5.33;1.83;;;;;;;;;;5057302;28;20230;-59
2023/07/16 10:13:12;;;;;;;3.37;1.13;;;;;;;;;;5057318;28;20732;-59
2023/07/16 10:15:40;;;;;;;6.53;1.80;;;;;;;;;;5057552;28;20634;-60
2023/07/16 10:18:08;;;;;;;3.17;2.20;;;;;;;;;;5053981;28;20725;-61
2023/07/16 10:20:42;;;;;;;2.90;1.23;;;;;;;;;;5037523;28;20231;-63
2023/07/16 10:23:13;;;;;;;4.60;1.33;;;;;;;;;;5037487;28;20217;-63
2023/07/16 10:25:42;;;;;;;5.73;1.90;;;;;;;;;;5037275;28;20230;-63
2023/07/16 10:28:09;;;;;;;5.03;1.60;;;;;;;;;;5037437;28;20681;-63
2023/07/16 10:30:37;;;;;;;3.00;1.40;;;;;;;;;;5037238;28;20237;-63
2023/07/16 10:33:12;;;;;;;3.33;1.60;;;;;;;;;;5049318;28;20233;-63
2023/07/16 10:35:43;;;;;;;1.90;1.40;;;;;;;;;;5041261;28;20198;-63
2023/07/16 10:38:11;;;;;;;3.33;1.63;;;;;;;;;;5040375;28;20295;-63
2023/07/16 10:40:43;;;;;;;2.63;1.37;;;;;;;;;;5042779;28;20274;-63
2023/07/16 10:43:11;;;;;;;3.70;1.53;;;;;;;;;;5040261;28;20207;-63
2023/07/16 10:45:39;;;;;;;3.83;1.70;;;;;;;;;;5037107;28;20266;-63
2023/07/16 10:48:07;;;;;;;3.87;1.73;;;;;;;;;;5041243;28;20239;-63
2023/07/16 10:50:35;;;;;;;7.47;2.53;;;;;;;;;;5041228;28;20235;-64
2023/07/16 10:53:05;;;;;;;2.30;1.40;;;;;;;;;;5041051;28;20647;-63
2023/07/16 10:55:37;;;;;;;4.17;1.90;;;;;;;;;;5040597;28;20238;-64
2023/07/16 10:58:06;;;;;;;2.77;1.47;;;;;;;;;;5041089;28;20204;-63
2023/07/16 11:00:37;;;;;;;3.70;1.70;;;;;;;;;;5049104;28;20763;-64
2023/07/16 11:03:05;;;;;;;3.27;1.40;;;;;;;;;;5040717;28;20594;-64
2023/07/16 11:05:32;;;;;;;5.77;2.10;;;;;;;;;;5040702;28;20264;-64
2023/07/16 11:08:00;;;;;;;2.17;1.80;;;;;;;;;;5040590;28;20206;-65
2023/07/16 11:10:30;;;;;;;1.93;1.50;;;;;;;;;;5040640;28;20317;-64
2023/07/16 11:12:58;;;;;;;5.53;1.90;;;;;;;;;;5045186;28;20233;-64
2023/07/16 11:15:33;;;;;;;2.73;1.40;;;;;;;;;;5040780;28;20211;-65
2023/07/16 11:18:01;;;;;;;3.00;1.60;;;;;;;;;;5048343;28;20213;-64
2023/07/16 11:20:29;;;;;;;2.53;1.67;;;;;;;;;;5040345;28;20240;-66
2023/07/16 11:22:59;;;;;;;6.00;1.60;;;;;;;;;;5040267;28;20212;-66
2023/07/16 11:25:27;;;;;;;2.83;1.57;;;;;;;;;;5039894;28;20224;-65
2023/07/16 11:27:56;;;;;;;1.87;1.57;;;;;;;;;;5040340;28;20208;-65
2023/07/16 11:30:24;;;;;;;3.93;1.50;;;;;;;;;;5040120;28;20637;-64
2023/07/16 11:32:53;;;;;;;1.87;1.37;;;;;;;;;;5043546;28;20239;-64
2023/07/16 11:35:22;;;;;;;4.70;1.97;;;;;;;;;;5049941;28;20201;-64
2023/07/16 11:37:49;;;;;;;2.73;1.40;;;;;;;;;;5039976;28;20640;-64
2023/07/16 11:40:18;;;;;;;3.73;1.97;;;;;;;;;;5045469;28;20330;-64
2023/07/16 11:42:46;;;;;;;5.13;2.13;;;;;;;;;;5048229;28;20213;-64
2023/07/16 11:45:19;;;;;;;4.63;2.60;;;;;;;;;;5039993;28;20238;-69
2023/07/16 11:47:47;;;;;;;3.63;1.60;;;;;;;;;;5040303;28;20295;-70
2023/07/16 11:50:15;;;;;;;6.67;2.50;;;;;;;;;;5039954;28;20231;-69
2023/07/16 11:52:43;;;;;;;2.63;1.47;;;;;;;;;;5039904;28;20659;-69
2023/07/16 11:55:11;;;;;;;2.20;1.57;;;;;;;;;;5039355;28;20676;-70
2023/07/16 11:57:38;;;;;;;4.33;1.83;;;;;;;;;;5039742;28;20206;-70
2023/07/16 12:00:07;;;;;;;4.17;1.60;;;;;;;;;;5045140;28;20254;-69
2023/07/16 12:02:36;;;;;;;4.40;1.60;;;;;;;;;;5039223;28;20212;-70
2023/07/16 12:05:04;;;;;;;2.00;1.80;;;;;;;;;;5045742;28;20206;-69
2023/07/16 12:07:33;;;;;;;3.40;1.60;;;;;;;;;;5059459;28;20234;-70
2023/07/16 12:10:03;;;;;;;5.70;1.60;;;;;;;;;;5059255;28;20227;-71
2023/07/16 12:12:31;;;;;;;2.97;1.37;;;;;;;;;;5056488;28;20261;-69
2023/07/16 12:14:59;;;;;;;1.37;1.20;;;;;;;;;;5039617;28;20227;-70
2023/07/16 12:17:28;;;;;;;1.73;1.63;;;;;;;;;;5042423;28;20199;-70
2023/07/16 12:19:57;;;;;;;2.03;1.70;;;;;;;;;;5039443;28;20239;-70
2023/07/16 12:22:25;;;;;;;2.53;1.73;;;;;;;;;;5039113;28;20204;-70
2023/07/16 12:24:53;;;;;;;3.40;2.00;;;;;;;;;;5038658;28;20213;-70
2023/07/16 12:27:21;;;;;;;2.13;1.37;;;;;;;;;;5039112;28;20254;-70
2023/07/16 12:29:49;;;;;;;3.30;2.00;;;;;;;;;;5038651;28;20225;-70
2023/07/16 12:32:17;;;;;;;1.70;1.40;;;;;;;;;;5038918;28;20213;-70
2023/07/16 12:34:45;;;;;;;2.23;1.57;;;;;;;;;;5038936;28;20204;-72
2023/07/16 12:37:14;;;;;;;2.73;1.63;;;;;;;;;;5038392;28;20206;-71
2023/07/16 12:39:42;;;;;;;2.63;1.63;;;;;;;;;;5039735;28;20214;-69
2023/07/16 12:42:10;;;;;;;3.77;1.60;;;;;;;;;;5048342;28;20209;-69
2023/07/16 12:44:37;;;;;;;3.23;1.80;;;;;;;;;;5039124;28;20244;-67
2023/07/16 12:47:08;;;;;;;4.10;1.80;;;;;;;;;;5039096;28;20315;-63
2023/07/16 12:49:36;;;;;;;1.97;1.47;;;;;;;;;;5045052;28;20202;-64
2023/07/16 12:52:04;;;;;;;3.27;1.67;;;;;;;;;;5038792;28;20265;-64
2023/07/16 12:54:33;;;;;;;4.10;1.63;;;;;;;;;;5038439;28;20218;-64
2023/07/16 12:57:02;;;;;;;2.30;1.63;;;;;;;;;;5039033;28;20201;-63
2023/07/16 12:59:30;;;;;;;2.67;1.80;;;;;;;;;;5039713;28;20214;-63
2023/07/16 13:01:58;;;;;;;3.80;1.70;;;;;;;;;;5038752;28;20214;-63
2023/07/16 13:04:26;;;;;;;2.70;1.30;;;;;;;;;;5038645;28;20253;-64
2023/07/16 13:06:53;;;;;;;3.47;1.60;;;;;;;;;;5038557;28;20236;-63
2023/07/16 13:09:22;;;;;;;2.73;1.67;;;;;;;;;;5044928;28;20219;-63
2023/07/16 13:11:51;;;;;;;2.13;1.93;;;;;;;;;;5057921;28;20228;-64
2023/07/16 13:14:19;;;;;;;5.03;2.27;;;;;;;;;;5058282;28;20245;-64
2023/07/16 13:16:47;;;;;;;2.33;1.70;;;;;;;;;;5040644;28;20229;-64
2023/07/16 13:19:15;;;;;;;3.37;1.47;;;;;;;;;;5038465;28;20297;-63
2023/07/16 13:21:43;;;;;;;1.87;1.50;;;;;;;;;;5038081;28;20786;-63
2023/07/16 13:24:10;;;;;;;2.20;1.67;;;;;;;;;;5038535;28;20211;-62
2023/07/16 13:26:38;;;;;;;4.00;1.60;;;;;;;;;;5038104;28;20225;-62
2023/07/16 13:29:07;;;;;;;2.43;1.40;;;;;;;;;;5038285;28;20216;-62
2023/07/16 13:31:35;;;;;;;2.87;1.40;;;;;;;;;;5038139;28;20695;-62
2023/07/16 13:34:03;;;;;;;2.00;1.80;;;;;;;;;;5037951;28;20251;-62
2023/07/16 13:36:30;;;;;;;15.00;2.00;;;;;;;;;;5038027;28;20206;-62
2023/07/16 13:38:58;;;;;;;2.67;1.30;;;;;;;;;;5038087;28;20242;-62
2023/07/16 13:41:26;;;;;;;2.17;1.50;;;;;;;;;;5046345;28;20250;-61
2023/07/16 13:43:54;;;;;;;2.73;1.70;;;;;;;;;;5037913;28;20206;-61
2023/07/16 13:46:23;;;;;;;4.13;2.10;;;;;;;;;;5037866;28;20238;-61
2023/07/16 13:48:51;;;;;;;2.33;1.27;;;;;;;;;;5037609;28;20272;-61
2023/07/16 13:51:25;;;;;;;2.70;1.57;;;;;;;;;;5037844;28;20227;-61
2023/07/16 13:53:53;;;;;;;2.17;1.63;;;;;;;;;;5037973;28;20274;-61
2023/07/16 13:56:21;;;;;;;1.90;1.70;;;;;;;;;;5037654;28;20211;-61
2023/07/16 13:58:50;;;;;;;2.77;1.70;;;;;;;;;;5038779;28;20301;-61
2023/07/16 14:01:18;;;;;;;3.00;1.87;;;;;;;;;;5046490;28;20357;-61
2023/07/16 14:03:47;;;;;;;1.50;1.40;;;;;;;;;;5037667;28;20213;-61
2023/07/16 14:06:15;;;;;;;1.53;1.40;;;;;;;;;;5037471;28;20240;-61
2023/07/16 14:08:43;;;;;;;4.03;1.60;;;;;;;;;;5037644;28;20238;-63
2023/07/16 14:11:11;;;;;;;2.60;1.83;;;;;;;;;;5037230;28;20596;-63
2023/07/16 14:13:39;;;;;;;2.03;1.47;;;;;;;;;;5045420;28;20205;-63
2023/07/16 14:16:06;;;;;;;2.50;1.60;;;;;;;;;;5040526;28;20231;-62
2023/07/16 14:18:34;;;;;;;2.00;1.80;;;;;;;;;;5037753;28;20305;-63
2023/07/16 14:21:04;;;;;;;2.17;1.40;;;;;;;;;;5037526;28;20335;-63
2023/07/16 14:23:32;;;;;;;2.00;1.50;;;;;;;;;;5041874;28;20238;-63
2023/07/16 14:26:00;;;;;;;1.80;1.70;;;;;;;;;;5041138;28;20264;-63
2023/07/16 14:28:29;;;;;;;3.90;2.13;;;;;;;;;;5041720;28;20234;-63
2023/07/16 14:30:56;;;;;;;4.43;1.70;;;;;;;;;;5041317;28;20315;-63
2023/07/16 14:33:24;;;;;;;2.27;1.80;;;;;;;;;;5041203;28;20244;-63
2023/07/16 14:35:52;;;;;;;2.87;1.73;;;;;;;;;;5041618;28;20236;-63
2023/07/16 14:38:21;;;;;;;1.55;1.45;;;;;;;;;;5041375;28;20245;-63
2023/07/16 14:40:50;;;;;;;3.25;1.88;;;;;;;;;;5045717;28;20310;-63
2023/07/16 14:43:19;;;;;;;3.55;2.03;;;;;;;;;;5041432;28;20272;-63
2023/07/16 14:45:47;;;;;;;2.30;1.77;;;;;;;;;;5048153;28;20306;-63
2023/07/16 14:48:15;;;;;;;1.77;1.52;;;;;;;;;;5061056;28;20229;-63
2023/07/16 14:50:43;;;;;;;2.57;1.67;;;;;;;;;;5054195;28;20239;-63